Parambu, Brazil
Current Conditions -  °F | °C
As of 7:00 AM on Sunday 21 Dec 2014 (Local Time) from SBJU Reporting Station
Scattered Clouds Scattered Clouds  
Wind Chill: 79°   Ceiling: Unl
Heat Index: 82°   Visibility: 6mi
Dew Point: 73°   Wind: 2mph
Humidity: 83%   Direction: 120°ESE
Pressure: 30.06"   Gusts: NA
Location:  6.21°S, 40.69°W
Report Text: SBJU 211000Z 12002KT 9999 SCT022 26/23 Q1018
Loading
Personal Weather Stations






























Interactive Weather Map New forecast layout! Learn more

10-Day Weather Forecast

Advertisements
Track Severe Weather on mobile